sensor_id;sensor_type;location;lat;lon;timestamp;temperature;humidity
31074;DHT22;17730;53.552;9.940;2022-08-19T00:00:36;19.50;99.90
31074;DHT22;17730;53.552;9.940;2022-08-19T00:03:02;19.50;99.90
31074;DHT22;17730;53.552;9.940;2022-08-19T00:05:28;19.50;99.90
31074;DHT22;17730;53.552;9.940;2022-08-19T00:07:54;19.50;99.90
31074;DHT22;17730;53.552;9.940;2022-08-19T00:10:20;19.40;99.90
31074;DHT22;17730;53.552;9.940;2022-08-19T00:12:46;19.50;99.90
31074;DHT22;17730;53.552;9.940;2022-08-19T00:15:14;19.50;99.90
31074;DHT22;17730;53.552;9.940;2022-08-19T00:17:44;19.50;99.90
31074;DHT22;17730;53.552;9.940;2022-08-19T00:20:12;19.60;99.90
31074;DHT22;17730;53.552;9.940;2022-08-19T00:22:38;19.50;99.90
31074;DHT22;17730;53.552;9.940;2022-08-19T00:25:07;19.60;99.90
31074;DHT22;17730;53.552;9.940;2022-08-19T00:27:33;19.60;99.90
31074;DHT22;17730;53.552;9.940;2022-08-19T00:29:59;19.60;99.90
31074;DHT22;17730;53.552;9.940;2022-08-19T00:32:25;19.60;99.90
31074;DHT22;17730;53.552;9.940;2022-08-19T00:34:52;19.50;99.90
31074;DHT22;17730;53.552;9.940;2022-08-19T00:37:18;19.50;99.90
31074;DHT22;17730;53.552;9.940;2022-08-19T00:39:44;19.50;99.90
31074;DHT22;17730;53.552;9.940;2022-08-19T00:42:10;19.50;99.90
31074;DHT22;17730;53.552;9.940;2022-08-19T00:44:36;19.50;99.90
31074;DHT22;17730;53.552;9.940;2022-08-19T00:47:02;19.50;99.90
31074;DHT22;17730;53.552;9.940;2022-08-19T00:49:35;19.50;99.90
31074;DHT22;17730;53.552;9.940;2022-08-19T00:52:08;19.40;99.90
31074;DHT22;17730;53.552;9.940;2022-08-19T00:54:36;19.40;99.90
31074;DHT22;17730;53.552;9.940;2022-08-19T00:57:05;19.50;99.90
31074;DHT22;17730;53.552;9.940;2022-08-19T00:59:31;19.40;99.90
31074;DHT22;17730;53.552;9.940;2022-08-19T01:01:58;19.40;99.90
31074;DHT22;17730;53.552;9.940;2022-08-19T01:04:23;19.40;99.90
31074;DHT22;17730;53.552;9.940;2022-08-19T01:06:49;19.40;99.90
31074;DHT22;17730;53.552;9.940;2022-08-19T01:09:14;19.40;99.90
31074;DHT22;17730;53.552;9.940;2022-08-19T01:11:41;19.40;99.90
31074;DHT22;17730;53.552;9.940;2022-08-19T01:14:09;19.40;99.90
31074;DHT22;17730;53.552;9.940;2022-08-19T01:16:36;19.40;99.90
31074;DHT22;17730;53.552;9.940;2022-08-19T01:19:03;19.40;99.90
31074;DHT22;17730;53.552;9.940;2022-08-19T01:21:40;19.40;99.90
31074;DHT22;17730;53.552;9.940;2022-08-19T01:24:07;19.40;99.90
31074;DHT22;17730;53.552;9.940;2022-08-19T01:26:38;19.40;99.90
31074;DHT22;17730;53.552;9.940;2022-08-19T01:29:07;19.40;99.90
31074;DHT22;17730;53.552;9.940;2022-08-19T01:31:33;19.40;99.90
31074;DHT22;17730;53.552;9.940;2022-08-19T01:34:00;19.40;99.90
31074;DHT22;17730;53.552;9.940;2022-08-19T01:36:34;19.40;99.90
31074;DHT22;17730;53.552;9.940;2022-08-19T01:39:07;19.40;99.90
31074;DHT22;17730;53.552;9.940;2022-08-19T01:41:33;19.40;99.90
31074;DHT22;17730;53.552;9.940;2022-08-19T01:43:59;19.40;99.90
31074;DHT22;17730;53.552;9.940;2022-08-19T01:46:26;19.40;99.90
31074;DHT22;17730;53.552;9.940;2022-08-19T01:48:51;19.40;99.90
31074;DHT22;17730;53.552;9.940;2022-08-19T01:51:17;19.30;99.90
31074;DHT22;17730;53.552;9.940;2022-08-19T01:53:47;19.30;99.90
31074;DHT22;17730;53.552;9.940;2022-08-19T01:56:13;19.40;99.90
31074;DHT22;17730;53.552;9.940;2022-08-19T01:58:42;19.40;99.90
31074;DHT22;17730;53.552;9.940;2022-08-19T02:01:11;19.40;99.90
31074;DHT22;17730;53.552;9.940;2022-08-19T02:03:37;19.40;99.90
31074;DHT22;17730;53.552;9.940;2022-08-19T02:06:03;19.40;99.90
31074;DHT22;17730;53.552;9.940;2022-08-19T02:08:32;19.40;99.90
31074;DHT22;17730;53.552;9.940;2022-08-19T02:10:58;19.40;99.90
31074;DHT22;17730;53.552;9.940;2022-08-19T02:13:24;19.40;99.90
31074;DHT22;17730;53.552;9.940;2022-08-19T02:15:50;19.40;99.90
31074;DHT22;17730;53.552;9.940;2022-08-19T02:18:16;19.30;99.90
31074;DHT22;17730;53.552;9.940;2022-08-19T02:20:43;19.30;99.90
31074;DHT22;17730;53.552;9.940;2022-08-19T02:23:11;19.30;99.90
31074;DHT22;17730;53.552;9.940;2022-08-19T02:25:37;19.30;99.90
31074;DHT22;17730;53.552;9.940;2022-08-19T02:28:03;19.30;99.90
31074;DHT22;17730;53.552;9.940;2022-08-19T02:30:29;19.30;99.90
31074;DHT22;17730;53.552;9.940;2022-08-19T02:32:55;19.10;99.90
31074;DHT22;17730;53.552;9.940;2022-08-19T02:35:20;19.10;99.90
31074;DHT22;17730;53.552;9.940;2022-08-19T02:37:46;19.00;99.90
31074;DHT22;17730;53.552;9.940;2022-08-19T02:40:31;18.90;99.90
31074;DHT22;17730;53.552;9.940;2022-08-19T02:43:03;19.00;99.90
31074;DHT22;17730;53.552;9.940;2022-08-19T02:45:35;19.00;99.90
31074;DHT22;17730;53.552;9.940;2022-08-19T02:48:01;19.00;99.90
31074;DHT22;17730;53.552;9.940;2022-08-19T02:50:27;19.00;99.90
31074;DHT22;17730;53.552;9.940;2022-08-19T02:52:53;18.90;99.90
31074;DHT22;17730;53.552;9.940;2022-08-19T02:55:18;18.90;99.90
31074;DHT22;17730;53.552;9.940;2022-08-19T02:57:44;18.90;99.90
31074;DHT22;17730;53.552;9.940;2022-08-19T03:00:10;19.00;99.90
31074;DHT22;17730;53.552;9.940;2022-08-19T03:02:39;19.00;99.90
31074;DHT22;17730;53.552;9.940;2022-08-19T03:05:06;19.00;99.90
31074;DHT22;17730;53.552;9.940;2022-08-19T03:07:32;19.00;99.90
31074;DHT22;17730;53.552;9.940;2022-08-19T03:09:58;19.00;99.90
31074;DHT22;17730;53.552;9.940;2022-08-19T03:12:24;19.00;99.90
31074;DHT22;17730;53.552;9.940;2022-08-19T03:14:49;19.00;99.90
31074;DHT22;17730;53.552;9.940;2022-08-19T03:17:16;19.00;99.90
31074;DHT22;17730;53.552;9.940;2022-08-19T03:19:41;19.00;99.90
31074;DHT22;17730;53.552;9.940;2022-08-19T03:22:08;18.90;99.90
31074;DHT22;17730;53.552;9.940;2022-08-19T03:24:34;18.80;99.90
31074;DHT22;17730;53.552;9.940;2022-08-19T03:27:00;18.80;99.90
31074;DHT22;17730;53.552;9.940;2022-08-19T03:29:27;18.80;99.90
31074;DHT22;17730;53.552;9.940;2022-08-19T03:31:53;18.80;99.90
31074;DHT22;17730;53.552;9.940;2022-08-19T03:34:23;18.80;99.90
31074;DHT22;17730;53.552;9.940;2022-08-19T03:36:52;18.80;99.90
31074;DHT22;17730;53.552;9.940;2022-08-19T03:39:18;18.80;99.90
31074;DHT22;17730;53.552;9.940;2022-08-19T03:41:46;18.80;99.90
31074;DHT22;17730;53.552;9.940;2022-08-19T03:44:20;18.80;99.90
31074;DHT22;17730;53.552;9.940;2022-08-19T03:46:55;18.80;99.90
31074;DHT22;17730;53.552;9.940;2022-08-19T03:49:22;18.80;99.90
31074;DHT22;17730;53.552;9.940;2022-08-19T03:51:49;18.80;99.90
31074;DHT22;17730;53.552;9.940;2022-08-19T03:54:18;18.80;99.90
31074;DHT22;17730;53.552;9.940;2022-08-19T03:56:46;18.80;99.90
31074;DHT22;17730;53.552;9.940;2022-08-19T03:59:19;18.80;99.90
31074;DHT22;17730;53.552;9.940;2022-08-19T04:01:45;18.80;99.90
31074;DHT22;17730;53.552;9.940;2022-08-19T04:04:11;18.70;99.90
31074;DHT22;17730;53.552;9.940;2022-08-19T04:06:37;18.70;99.90
31074;DHT22;17730;53.552;9.940;2022-08-19T04:09:05;18.70;99.90
31074;DHT22;17730;53.552;9.940;2022-08-19T04:11:38;18.70;99.90
31074;DHT22;17730;53.552;9.940;2022-08-19T04:14:08;18.70;99.90
31074;DHT22;17730;53.552;9.940;2022-08-19T04:16:34;18.70;99.90
31074;DHT22;17730;53.552;9.940;2022-08-19T04:19:02;18.70;99.90
31074;DHT22;17730;53.552;9.940;2022-08-19T04:21:28;18.70;99.90
31074;DHT22;17730;53.552;9.940;2022-08-19T04:23:55;18.70;99.90
31074;DHT22;17730;53.552;9.940;2022-08-19T04:26:26;18.70;99.90
31074;DHT22;17730;53.552;9.940;2022-08-19T04:28:53;18.70;99.90
31074;DHT22;17730;53.552;9.940;2022-08-19T04:31:22;18.60;99.90
31074;DHT22;17730;53.552;9.940;2022-08-19T04:33:48;18.70;99.90
31074;DHT22;17730;53.552;9.940;2022-08-19T04:36:18;18.70;99.90
31074;DHT22;17730;53.552;9.940;2022-08-19T04:38:46;18.70;99.90
31074;DHT22;17730;53.552;9.940;2022-08-19T04:41:12;18.70;99.90
31074;DHT22;17730;53.552;9.940;2022-08-19T04:43:56;18.60;99.90
31074;DHT22;17730;53.552;9.940;2022-08-19T04:46:21;18.60;99.90
31074;DHT22;17730;53.552;9.940;2022-08-19T04:48:47;18.60;99.90
31074;DHT22;17730;53.552;9.940;2022-08-19T04:51:13;18.60;99.90
31074;DHT22;17730;53.552;9.940;2022-08-19T04:53:40;18.60;99.90
31074;DHT22;17730;53.552;9.940;2022-08-19T04:56:14;18.60;99.90
31074;DHT22;17730;53.552;9.940;2022-08-19T04:58:42;18.60;99.90
31074;DHT22;17730;53.552;9.940;2022-08-19T05:01:08;18.50;99.90
31074;DHT22;17730;53.552;9.940;2022-08-19T05:03:35;18.50;99.90
31074;DHT22;17730;53.552;9.940;2022-08-19T05:06:06;18.50;99.90
31074;DHT22;17730;53.552;9.940;2022-08-19T05:08:34;18.50;99.90
31074;DHT22;17730;53.552;9.940;2022-08-19T05:11:01;18.60;99.90
31074;DHT22;17730;53.552;9.940;2022-08-19T05:13:32;18.50;99.90
31074;DHT22;17730;53.552;9.940;2022-08-19T05:15:58;18.60;99.90
31074;DHT22;17730;53.552;9.940;2022-08-19T05:18:24;18.60;99.90
31074;DHT22;17730;53.552;9.940;2022-08-19T05:21:10;18.60;99.90
31074;DHT22;17730;53.552;9.940;2022-08-19T05:23:55;18.60;99.90
31074;DHT22;17730;53.552;9.940;2022-08-19T05:26:21;18.60;99.90
31074;DHT22;17730;53.552;9.940;2022-08-19T05:28:47;18.60;99.90
31074;DHT22;17730;53.552;9.940;2022-08-19T05:31:13;18.60;99.90
31074;DHT22;17730;53.552;9.940;2022-08-19T05:33:38;18.60;99.90
31074;DHT22;17730;53.552;9.940;2022-08-19T05:36:05;18.60;99.90
31074;DHT22;17730;53.552;9.940;2022-08-19T05:38:33;18.60;99.90
31074;DHT22;17730;53.552;9.940;2022-08-19T05:40:59;18.60;99.90
31074;DHT22;17730;53.552;9.940;2022-08-19T05:43:24;18.60;99.90
31074;DHT22;17730;53.552;9.940;2022-08-19T05:45:50;18.50;99.90
31074;DHT22;17730;53.552;9.940;2022-08-19T05:48:17;18.60;99.90
31074;DHT22;17730;53.552;9.940;2022-08-19T05:50:46;18.50;99.90
31074;DHT22;17730;53.552;9.940;2022-08-19T05:53:12;18.50;99.90
31074;DHT22;17730;53.552;9.940;2022-08-19T05:55:39;18.50;99.90
31074;DHT22;17730;53.552;9.940;2022-08-19T05:58:05;18.50;99.90
31074;DHT22;17730;53.552;9.940;2022-08-19T06:00:33;18.50;99.90
31074;DHT22;17730;53.552;9.940;2022-08-19T06:02:59;18.60;99.90
31074;DHT22;17730;53.552;9.940;2022-08-19T06:05:31;18.50;99.90
31074;DHT22;17730;53.552;9.940;2022-08-19T06:07:57;18.50;99.90
31074;DHT22;17730;53.552;9.940;2022-08-19T06:10:26;18.60;99.90
31074;DHT22;17730;53.552;9.940;2022-08-19T06:12:52;18.60;99.90
31074;DHT22;17730;53.552;9.940;2022-08-19T06:15:17;18.60;99.90
31074;DHT22;17730;53.552;9.940;2022-08-19T06:17:43;18.60;99.90
31074;DHT22;17730;53.552;9.940;2022-08-19T06:20:14;18.60;99.90
31074;DHT22;17730;53.552;9.940;2022-08-19T06:22:45;18.70;99.90
31074;DHT22;17730;53.552;9.940;2022-08-19T06:25:12;18.70;99.90
31074;DHT22;17730;53.552;9.940;2022-08-19T06:27:40;18.70;99.90
31074;DHT22;17730;53.552;9.940;2022-08-19T06:30:06;18.80;99.90
31074;DHT22;17730;53.552;9.940;2022-08-19T06:32:32;18.80;99.90
31074;DHT22;17730;53.552;9.940;2022-08-19T06:34:57;18.80;99.90
31074;DHT22;17730;53.552;9.940;2022-08-19T06:37:23;18.90;99.90
31074;DHT22;17730;53.552;9.940;2022-08-19T06:39:49;18.90;99.90
31074;DHT22;17730;53.552;9.940;2022-08-19T06:42:16;18.90;99.90
31074;DHT22;17730;53.552;9.940;2022-08-19T06:44:45;18.80;99.90
31074;DHT22;17730;53.552;9.940;2022-08-19T06:47:15;18.70;99.90
31074;DHT22;17730;53.552;9.940;2022-08-19T06:49:41;18.80;99.90
31074;DHT22;17730;53.552;9.940;2022-08-19T06:52:07;18.80;99.90
31074;DHT22;17730;53.552;9.940;2022-08-19T06:54:33;18.80;99.90
31074;DHT22;17730;53.552;9.940;2022-08-19T06:57:00;18.80;99.90
31074;DHT22;17730;53.552;9.940;2022-08-19T06:59:30;18.80;99.90
31074;DHT22;17730;53.552;9.940;2022-08-19T07:01:59;18.80;99.90
31074;DHT22;17730;53.552;9.940;2022-08-19T07:04:27;18.80;99.90
31074;DHT22;17730;53.552;9.940;2022-08-19T07:07:10;18.80;99.90
31074;DHT22;17730;53.552;9.940;2022-08-19T07:09:39;18.90;99.90
31074;DHT22;17730;53.552;9.940;2022-08-19T07:12:07;18.90;99.90
31074;DHT22;17730;53.552;9.940;2022-08-19T07:14:34;18.90;99.90
31074;DHT22;17730;53.552;9.940;2022-08-19T07:17:04;19.00;99.90
31074;DHT22;17730;53.552;9.940;2022-08-19T07:19:30;19.10;99.90
31074;DHT22;17730;53.552;9.940;2022-08-19T07:21:56;19.10;99.90
31074;DHT22;17730;53.552;9.940;2022-08-19T07:24:24;19.10;99.90
31074;DHT22;17730;53.552;9.940;2022-08-19T07:26:52;19.10;99.90
31074;DHT22;17730;53.552;9.940;2022-08-19T07:29:19;19.20;99.90
31074;DHT22;17730;53.552;9.940;2022-08-19T07:31:45;19.30;99.90
31074;DHT22;17730;53.552;9.940;2022-08-19T07:34:11;19.40;99.90
31074;DHT22;17730;53.552;9.940;2022-08-19T07:36:40;19.60;99.90
31074;DHT22;17730;53.552;9.940;2022-08-19T07:39:24;19.60;99.90
31074;DHT22;17730;53.552;9.940;2022-08-19T07:41:50;19.60;99.90
31074;DHT22;17730;53.552;9.940;2022-08-19T07:44:17;19.60;99.90
31074;DHT22;17730;53.552;9.940;2022-08-19T07:46:46;19.60;99.90
31074;DHT22;17730;53.552;9.940;2022-08-19T07:49:12;19.70;99.90
31074;DHT22;17730;53.552;9.940;2022-08-19T07:51:43;19.70;99.90
31074;DHT22;17730;53.552;9.940;2022-08-19T07:54:09;19.60;99.90
31074;DHT22;17730;53.552;9.940;2022-08-19T07:56:34;19.60;99.90
31074;DHT22;17730;53.552;9.940;2022-08-19T07:59:00;19.60;99.90
31074;DHT22;17730;53.552;9.940;2022-08-19T08:01:26;19.60;99.90
31074;DHT22;17730;53.552;9.940;2022-08-19T08:03:54;19.70;99.90
31074;DHT22;17730;53.552;9.940;2022-08-19T08:06:38;19.60;99.90
31074;DHT22;17730;53.552;9.940;2022-08-19T08:09:32;19.70;99.90
31074;DHT22;17730;53.552;9.940;2022-08-19T08:12:08;19.60;99.90
31074;DHT22;17730;53.552;9.940;2022-08-19T08:17:07;19.60;99.90
31074;DHT22;17730;53.552;9.940;2022-08-19T08:19:33;19.80;99.90
31074;DHT22;17730;53.552;9.940;2022-08-19T08:22:00;19.80;99.90
31074;DHT22;17730;53.552;9.940;2022-08-19T08:24:30;19.70;99.90
31074;DHT22;17730;53.552;9.940;2022-08-19T08:26:58;19.80;99.90
31074;DHT22;17730;53.552;9.940;2022-08-19T08:29:25;19.70;99.90
31074;DHT22;17730;53.552;9.940;2022-08-19T08:31:52;19.80;99.90
31074;DHT22;17730;53.552;9.940;2022-08-19T08:34:19;19.70;99.90
31074;DHT22;17730;53.552;9.940;2022-08-19T08:36:45;19.70;99.90
31074;DHT22;17730;53.552;9.940;2022-08-19T08:39:13;19.70;99.90
31074;DHT22;17730;53.552;9.940;2022-08-19T08:47:20;20.00;99.90
31074;DHT22;17730;53.552;9.940;2022-08-19T08:49:59;20.00;99.90
31074;DHT22;17730;53.552;9.940;2022-08-19T08:52:29;20.00;99.90
31074;DHT22;17730;53.552;9.940;2022-08-19T08:54:58;20.10;99.90
31074;DHT22;17730;53.552;9.940;2022-08-19T08:57:49;20.00;99.90
31074;DHT22;17730;53.552;9.940;2022-08-19T09:00:24;20.00;99.90
31074;DHT22;17730;53.552;9.940;2022-08-19T09:02:52;20.00;99.90
31074;DHT22;17730;53.552;9.940;2022-08-19T09:05:21;20.00;99.90
31074;DHT22;17730;53.552;9.940;2022-08-19T09:08:07;19.90;99.90
31074;DHT22;17730;53.552;9.940;2022-08-19T09:10:38;20.00;99.90
31074;DHT22;17730;53.552;9.940;2022-08-19T09:13:35;20.10;99.90
31074;DHT22;17730;53.552;9.940;2022-08-19T09:16:07;20.20;99.90
31074;DHT22;17730;53.552;9.940;2022-08-19T09:18:44;20.40;99.90
31074;DHT22;17730;53.552;9.940;2022-08-19T09:21:11;20.80;99.90
31074;DHT22;17730;53.552;9.940;2022-08-19T09:23:37;20.90;99.90
31074;DHT22;17730;53.552;9.940;2022-08-19T09:26:11;21.10;99.90
31074;DHT22;17730;53.552;9.940;2022-08-19T09:28:42;21.00;99.90
31074;DHT22;17730;53.552;9.940;2022-08-19T09:31:10;20.90;99.90
31074;DHT22;17730;53.552;9.940;2022-08-19T09:33:36;20.70;99.90
31074;DHT22;17730;53.552;9.940;2022-08-19T09:36:07;20.70;99.90
31074;DHT22;17730;53.552;9.940;2022-08-19T09:38:35;20.80;99.90
31074;DHT22;17730;53.552;9.940;2022-08-19T09:41:06;20.90;99.90
31074;DHT22;17730;53.552;9.940;2022-08-19T09:43:32;20.90;99.90
31074;DHT22;17730;53.552;9.940;2022-08-19T09:46:03;20.70;99.90
31074;DHT22;17730;53.552;9.940;2022-08-19T09:48:32;20.80;99.90
31074;DHT22;17730;53.552;9.940;2022-08-19T09:51:12;20.60;99.90
31074;DHT22;17730;53.552;9.940;2022-08-19T09:53:41;20.60;99.90
31074;DHT22;17730;53.552;9.940;2022-08-19T09:56:08;20.50;99.90
31074;DHT22;17730;53.552;9.940;2022-08-19T09:58:34;20.50;99.90
31074;DHT22;17730;53.552;9.940;2022-08-19T10:01:01;20.60;99.90
31074;DHT22;17730;53.552;9.940;2022-08-19T10:03:28;20.60;99.90
31074;DHT22;17730;53.552;9.940;2022-08-19T10:05:56;20.60;99.90
31074;DHT22;17730;53.552;9.940;2022-08-19T10:08:33;20.70;99.90
31074;DHT22;17730;53.552;9.940;2022-08-19T10:11:00;20.60;99.90
31074;DHT22;17730;53.552;9.940;2022-08-19T10:13:28;20.40;99.90
31074;DHT22;17730;53.552;9.940;2022-08-19T10:16:01;20.40;99.90
31074;DHT22;17730;53.552;9.940;2022-08-19T10:18:27;20.50;99.90
31074;DHT22;17730;53.552;9.940;2022-08-19T10:21:08;20.60;99.90
31074;DHT22;17730;53.552;9.940;2022-08-19T10:23:35;20.70;99.90
31074;DHT22;17730;53.552;9.940;2022-08-19T10:26:02;20.70;99.90
31074;DHT22;17730;53.552;9.940;2022-08-19T10:28:29;20.60;99.90
31074;DHT22;17730;53.552;9.940;2022-08-19T10:30:55;20.60;99.90
31074;DHT22;17730;53.552;9.940;2022-08-19T10:33:20;20.50;99.90
31074;DHT22;17730;53.552;9.940;2022-08-19T10:35:46;20.70;99.90
31074;DHT22;17730;53.552;9.940;2022-08-19T10:38:12;20.70;99.90
31074;DHT22;17730;53.552;9.940;2022-08-19T10:40:37;20.80;99.90
31074;DHT22;17730;53.552;9.940;2022-08-19T10:43:03;21.10;99.90
31074;DHT22;17730;53.552;9.940;2022-08-19T10:45:28;21.00;99.90
31074;DHT22;17730;53.552;9.940;2022-08-19T10:47:54;21.00;99.90
31074;DHT22;17730;53.552;9.940;2022-08-19T10:50:20;20.90;99.90
31074;DHT22;17730;53.552;9.940;2022-08-19T10:53:06;20.70;99.90
31074;DHT22;17730;53.552;9.940;2022-08-19T10:55:34;20.70;99.90
31074;DHT22;17730;53.552;9.940;2022-08-19T10:58:20;20.70;99.90
31074;DHT22;17730;53.552;9.940;2022-08-19T11:00:56;20.60;99.90
31074;DHT22;17730;53.552;9.940;2022-08-19T11:03:23;20.50;99.90
31074;DHT22;17730;53.552;9.940;2022-08-19T11:06:06;20.60;99.90
31074;DHT22;17730;53.552;9.940;2022-08-19T11:08:33;20.70;99.90
31074;DHT22;17730;53.552;9.940;2022-08-19T11:11:01;20.90;99.90
31074;DHT22;17730;53.552;9.940;2022-08-19T11:13:33;21.20;99.90
31074;DHT22;17730;53.552;9.940;2022-08-19T11:18:39;21.30;99.90
31074;DHT22;17730;53.552;9.940;2022-08-19T11:21:17;21.40;99.90
31074;DHT22;17730;53.552;9.940;2022-08-19T11:23:45;21.50;99.90
31074;DHT22;17730;53.552;9.940;2022-08-19T11:26:12;21.90;99.90
31074;DHT22;17730;53.552;9.940;2022-08-19T11:28:38;22.20;99.90
31074;DHT22;17730;53.552;9.940;2022-08-19T11:31:09;22.40;99.90
31074;DHT22;17730;53.552;9.940;2022-08-19T11:33:35;22.50;99.90
31074;DHT22;17730;53.552;9.940;2022-08-19T11:36:00;22.40;99.90
31074;DHT22;17730;53.552;9.940;2022-08-19T11:38:27;22.20;99.90
31074;DHT22;17730;53.552;9.940;2022-08-19T11:41:00;22.30;99.90
31074;DHT22;17730;53.552;9.940;2022-08-19T11:43:27;22.50;99.90
31074;DHT22;17730;53.552;9.940;2022-08-19T11:45:54;22.60;99.90
31074;DHT22;17730;53.552;9.940;2022-08-19T11:48:20;22.50;99.90
31074;DHT22;17730;53.552;9.940;2022-08-19T11:50:53;22.50;99.90
31074;DHT22;17730;53.552;9.940;2022-08-19T11:53:22;22.50;99.90
31074;DHT22;17730;53.552;9.940;2022-08-19T11:55:49;22.50;99.90
31074;DHT22;17730;53.552;9.940;2022-08-19T11:58:16;22.60;99.90
31074;DHT22;17730;53.552;9.940;2022-08-19T12:00:43;22.60;99.90
31074;DHT22;17730;53.552;9.940;2022-08-19T12:03:12;22.50;99.90
31074;DHT22;17730;53.552;9.940;2022-08-19T12:05:38;22.20;99.90
31074;DHT22;17730;53.552;9.940;2022-08-19T12:08:05;22.00;99.90
31074;DHT22;17730;53.552;9.940;2022-08-19T12:10:31;21.80;99.90
31074;DHT22;17730;53.552;9.940;2022-08-19T12:12:56;21.60;99.90
31074;DHT22;17730;53.552;9.940;2022-08-19T12:15:22;21.80;99.90
31074;DHT22;17730;53.552;9.940;2022-08-19T12:17:47;22.00;99.90
31074;DHT22;17730;53.552;9.940;2022-08-19T12:20:13;22.10;99.90
31074;DHT22;17730;53.552;9.940;2022-08-19T12:22:41;22.40;99.90
31074;DHT22;17730;53.552;9.940;2022-08-19T12:25:09;22.70;99.90
31074;DHT22;17730;53.552;9.940;2022-08-19T12:27:35;23.10;99.90
31074;DHT22;17730;53.552;9.940;2022-08-19T12:30:02;23.50;99.90
31074;DHT22;17730;53.552;9.940;2022-08-19T12:32:28;23.80;99.90
31074;DHT22;17730;53.552;9.940;2022-08-19T12:34:54;24.00;99.90
31074;DHT22;17730;53.552;9.940;2022-08-19T12:37:20;24.30;99.90
31074;DHT22;17730;53.552;9.940;2022-08-19T12:39:45;24.20;99.90
31074;DHT22;17730;53.552;9.940;2022-08-19T12:42:12;24.10;99.90
31074;DHT22;17730;53.552;9.940;2022-08-19T12:44:40;24.20;99.90
31074;DHT22;17730;53.552;9.940;2022-08-19T12:47:08;24.40;99.90
31074;DHT22;17730;53.552;9.940;2022-08-19T12:49:34;24.60;99.90
31074;DHT22;17730;53.552;9.940;2022-08-19T12:52:02;24.50;99.90
31074;DHT22;17730;53.552;9.940;2022-08-19T12:54:28;24.50;99.90
31074;DHT22;17730;53.552;9.940;2022-08-19T12:56:58;24.60;99.90
31074;DHT22;17730;53.552;9.940;2022-08-19T12:59:25;24.70;99.90
31074;DHT22;17730;53.552;9.940;2022-08-19T13:01:51;25.00;99.90
31074;DHT22;17730;53.552;9.940;2022-08-19T13:04:17;25.10;99.90
31074;DHT22;17730;53.552;9.940;2022-08-19T13:06:43;25.20;99.90
31074;DHT22;17730;53.552;9.940;2022-08-19T13:09:09;25.20;99.90
31074;DHT22;17730;53.552;9.940;2022-08-19T13:11:35;25.00;99.90
31074;DHT22;17730;53.552;9.940;2022-08-19T13:14:02;24.80;99.90
31074;DHT22;17730;53.552;9.940;2022-08-19T13:16:29;24.70;99.90
31074;DHT22;17730;53.552;9.940;2022-08-19T13:18:55;24.30;99.90
31074;DHT22;17730;53.552;9.940;2022-08-19T13:21:26;24.20;99.90
31074;DHT22;17730;53.552;9.940;2022-08-19T13:23:53;24.20;99.90
31074;DHT22;17730;53.552;9.940;2022-08-19T13:26:19;24.20;99.90
31074;DHT22;17730;53.552;9.940;2022-08-19T13:28:45;24.40;99.90
31074;DHT22;17730;53.552;9.940;2022-08-19T13:31:34;24.50;99.90
31074;DHT22;17730;53.552;9.940;2022-08-19T13:34:25;24.50;99.90
31074;DHT22;17730;53.552;9.940;2022-08-19T13:36:52;24.50;99.90
31074;DHT22;17730;53.552;9.940;2022-08-19T13:39:18;24.40;99.90
31074;DHT22;17730;53.552;9.940;2022-08-19T13:41:46;24.40;99.90
31074;DHT22;17730;53.552;9.940;2022-08-19T13:44:14;24.30;99.90
31074;DHT22;17730;53.552;9.940;2022-08-19T13:46:41;24.50;99.90
31074;DHT22;17730;53.552;9.940;2022-08-19T13:49:10;24.50;99.90
31074;DHT22;17730;53.552;9.940;2022-08-19T13:51:37;24.50;99.90
31074;DHT22;17730;53.552;9.940;2022-08-19T13:54:05;24.50;99.90
31074;DHT22;17730;53.552;9.940;2022-08-19T13:56:31;24.50;99.90
31074;DHT22;17730;53.552;9.940;2022-08-19T13:58:57;24.50;99.90
31074;DHT22;17730;53.552;9.940;2022-08-19T14:01:23;24.50;99.90
31074;DHT22;17730;53.552;9.940;2022-08-19T14:03:49;24.50;99.90
31074;DHT22;17730;53.552;9.940;2022-08-19T14:06:15;24.30;99.90
31074;DHT22;17730;53.552;9.940;2022-08-19T14:08:42;24.20;99.90
31074;DHT22;17730;53.552;9.940;2022-08-19T14:11:08;24.10;99.90
31074;DHT22;17730;53.552;9.940;2022-08-19T14:13:34;24.00;99.90
31074;DHT22;17730;53.552;9.940;2022-08-19T14:16:00;24.00;99.90
31074;DHT22;17730;53.552;9.940;2022-08-19T14:18:25;23.90;99.90
31074;DHT22;17730;53.552;9.940;2022-08-19T14:20:52;24.00;99.90
31074;DHT22;17730;53.552;9.940;2022-08-19T14:23:17;24.10;99.90
31074;DHT22;17730;53.552;9.940;2022-08-19T14:25:43;24.20;99.90
31074;DHT22;17730;53.552;9.940;2022-08-19T14:28:09;24.30;99.90
31074;DHT22;17730;53.552;9.940;2022-08-19T14:30:36;24.40;99.90
31074;DHT22;17730;53.552;9.940;2022-08-19T14:33:04;24.40;99.90
31074;DHT22;17730;53.552;9.940;2022-08-19T14:35:32;24.50;99.90
31074;DHT22;17730;53.552;9.940;2022-08-19T14:38:02;24.90;99.90
31074;DHT22;17730;53.552;9.940;2022-08-19T14:40:30;25.10;99.90
31074;DHT22;17730;53.552;9.940;2022-08-19T14:43:02;25.00;99.90
31074;DHT22;17730;53.552;9.940;2022-08-19T14:45:31;25.00;99.90
31074;DHT22;17730;53.552;9.940;2022-08-19T14:47:57;24.90;99.90
31074;DHT22;17730;53.552;9.940;2022-08-19T14:50:24;24.80;99.90
31074;DHT22;17730;53.552;9.940;2022-08-19T14:52:56;24.70;99.90
31074;DHT22;17730;53.552;9.940;2022-08-19T14:55:23;24.90;99.90
31074;DHT22;17730;53.552;9.940;2022-08-19T14:57:49;25.00;99.90
31074;DHT22;17730;53.552;9.940;2022-08-19T15:00:15;25.00;99.90
31074;DHT22;17730;53.552;9.940;2022-08-19T15:02:41;24.80;99.90
31074;DHT22;17730;53.552;9.940;2022-08-19T15:05:09;24.50;99.90
31074;DHT22;17730;53.552;9.940;2022-08-19T15:07:36;24.20;99.90
31074;DHT22;17730;53.552;9.940;2022-08-19T15:10:03;24.20;99.90
31074;DHT22;17730;53.552;9.940;2022-08-19T15:12:29;24.10;99.90
31074;DHT22;17730;53.552;9.940;2022-08-19T15:14:55;24.20;99.90
31074;DHT22;17730;53.552;9.940;2022-08-19T15:17:21;24.30;99.90
31074;DHT22;17730;53.552;9.940;2022-08-19T15:19:47;24.40;99.90
31074;DHT22;17730;53.552;9.940;2022-08-19T15:22:12;24.60;99.90
31074;DHT22;17730;53.552;9.940;2022-08-19T15:24:39;24.70;99.90
31074;DHT22;17730;53.552;9.940;2022-08-19T15:27:05;24.90;99.90
31074;DHT22;17730;53.552;9.940;2022-08-19T15:29:31;25.10;99.90
31074;DHT22;17730;53.552;9.940;2022-08-19T15:31:57;25.10;99.90
31074;DHT22;17730;53.552;9.940;2022-08-19T15:34:25;25.20;99.90
31074;DHT22;17730;53.552;9.940;2022-08-19T15:36:54;25.30;99.90
31074;DHT22;17730;53.552;9.940;2022-08-19T15:39:19;25.40;99.90
31074;DHT22;17730;53.552;9.940;2022-08-19T15:41:46;25.50;99.90
31074;DHT22;17730;53.552;9.940;2022-08-19T15:44:14;25.60;99.90
31074;DHT22;17730;53.552;9.940;2022-08-19T15:46:42;25.40;99.90